Terminal Aerodrome Forecast
Issued by NWS

Home | Current Version | Previous Version | Text Only | Print | Product List | Glossary On
Versions: 1 2 3 4 5 6 7 8 9 10 11 12 13 14 15 16 17 18 19 20 21
000
FTAK31 PANC 010537
TAFAIL
TAF
PAIL 010537Z 0106/0206 11015G22KT P6SM FEW060 BKN120
     FM011100 09025G35KT P6SM VCSH SCT050 OVC080
     FM011500 09030G44KT 6SM -RA SCT025 OVC035 WS020/13060KT
     FM011800 09030G44KT 6SM -RA BKN025 OVC035 WS020/13060KT
     FM020500 09018G28KT 6SM -RA SCT025 OVC035=

USA.gov is the U.S. government's official web portal to all federal, state and local government web resources and services.